sensor_id;sensor_type;location;lat;lon;timestamp;pressure;altitude;pressure_sealevel;temperature;humidity
34103;BME280;20381;54.498;18.206;2023-07-31T00:02:22;98892.71;;;13.99;94.07
34103;BME280;20381;54.498;18.206;2023-07-31T00:04:51;98897.44;;;14.04;94.43
34103;BME280;20381;54.498;18.206;2023-07-31T00:07:23;98899.24;;;14.06;94.36
34103;BME280;20381;54.498;18.206;2023-07-31T00:09:52;98891.72;;;14.08;94.53
34103;BME280;20381;54.498;18.206;2023-07-31T00:12:22;98882.44;;;14.10;94.51
34103;BME280;20381;54.498;18.206;2023-07-31T00:14:53;98874.75;;;14.13;94.74
34103;BME280;20381;54.498;18.206;2023-07-31T00:17:30;98869.01;;;14.13;94.80
34103;BME280;20381;54.498;18.206;2023-07-31T00:19:58;98861.02;;;14.11;94.78
34103;BME280;20381;54.498;18.206;2023-07-31T00:22:30;98852.30;;;14.08;94.76
34103;BME280;20381;54.498;18.206;2023-07-31T00:25:01;98847.15;;;14.03;94.62
34103;BME280;20381;54.498;18.206;2023-07-31T00:27:33;98840.75;;;13.95;94.37
34103;BME280;20381;54.498;18.206;2023-07-31T00:30:03;98835.23;;;13.89;94.20
34103;BME280;20381;54.498;18.206;2023-07-31T00:32:34;98834.23;;;13.84;93.81
34103;BME280;20381;54.498;18.206;2023-07-31T00:35:03;98832.80;;;13.82;94.41
34103;BME280;20381;54.498;18.206;2023-07-31T00:37:32;98832.15;;;13.84;94.68
34103;BME280;20381;54.498;18.206;2023-07-31T00:40:00;98832.77;;;13.85;94.85
34103;BME280;20381;54.498;18.206;2023-07-31T00:42:29;98841.16;;;13.85;94.69
34103;BME280;20381;54.498;18.206;2023-07-31T00:45:07;98841.90;;;13.84;94.95
34103;BME280;20381;54.498;18.206;2023-07-31T00:47:42;98845.30;;;13.85;95.03
34103;BME280;20381;54.498;18.206;2023-07-31T00:50:16;98839.95;;;13.80;95.00
34103;BME280;20381;54.498;18.206;2023-07-31T00:52:51;98846.20;;;13.76;95.14
34103;BME280;20381;54.498;18.206;2023-07-31T00:55:23;98844.98;;;13.76;95.11
34103;BME280;20381;54.498;18.206;2023-07-31T00:57:52;98844.73;;;13.67;95.04
34103;BME280;20381;54.498;18.206;2023-07-31T01:00:47;98844.98;;;13.56;94.98
34103;BME280;20381;54.498;18.206;2023-07-31T01:03:39;98843.42;;;13.47;95.47
34103;BME280;20381;54.498;18.206;2023-07-31T01:06:18;98852.47;;;13.45;95.63
34103;BME280;20381;54.498;18.206;2023-07-31T01:08:56;98854.34;;;13.43;96.01
34103;BME280;20381;54.498;18.206;2023-07-31T01:11:33;98858.02;;;13.46;95.87
34103;BME280;20381;54.498;18.206;2023-07-31T01:14:02;98861.80;;;13.42;95.52
34103;BME280;20381;54.498;18.206;2023-07-31T01:16:37;98861.80;;;13.37;95.53
34103;BME280;20381;54.498;18.206;2023-07-31T01:19:11;98861.61;;;13.33;95.60
34103;BME280;20381;54.498;18.206;2023-07-31T01:25:29;98860.33;;;13.18;95.53
34103;BME280;20381;54.498;18.206;2023-07-31T01:27:43;98850.89;;;13.11;95.66
34103;BME280;20381;54.498;18.206;2023-07-31T01:30:18;98852.04;;;13.10;95.80
34103;BME280;20381;54.498;18.206;2023-07-31T01:32:54;98849.12;;;13.06;95.76
34103;BME280;20381;54.498;18.206;2023-07-31T01:35:31;98849.48;;;13.04;95.79
34103;BME280;20381;54.498;18.206;2023-07-31T01:38:02;98848.98;;;13.01;95.79
34103;BME280;20381;54.498;18.206;2023-07-31T01:40:34;98849.86;;;12.96;95.55
34103;BME280;20381;54.498;18.206;2023-07-31T01:45:50;98847.97;;;12.83;95.94
34103;BME280;20381;54.498;18.206;2023-07-31T01:48:22;98854.90;;;12.79;95.94
34103;BME280;20381;54.498;18.206;2023-07-31T01:50:54;98852.05;;;12.72;96.04
34103;BME280;20381;54.498;18.206;2023-07-31T01:53:25;98850.91;;;12.66;95.84
34103;BME280;20381;54.498;18.206;2023-07-31T01:55:59;98850.11;;;12.60;95.92
34103;BME280;20381;54.498;18.206;2023-07-31T01:58:33;98852.57;;;12.55;96.05
34103;BME280;20381;54.498;18.206;2023-07-31T02:01:07;98854.48;;;12.50;96.20
34103;BME280;20381;54.498;18.206;2023-07-31T02:03:41;98857.07;;;12.45;96.20
34103;BME280;20381;54.498;18.206;2023-07-31T02:06:14;98857.45;;;12.42;96.27
34103;BME280;20381;54.498;18.206;2023-07-31T02:08:49;98859.22;;;12.39;96.37
34103;BME280;20381;54.498;18.206;2023-07-31T02:11:21;98858.23;;;12.39;96.51
34103;BME280;20381;54.498;18.206;2023-07-31T02:13:53;98861.95;;;12.38;96.47
34103;BME280;20381;54.498;18.206;2023-07-31T02:16:22;98858.27;;;12.36;96.46
34103;BME280;20381;54.498;18.206;2023-07-31T02:18:50;98859.12;;;12.36;96.67
34103;BME280;20381;54.498;18.206;2023-07-31T02:21:25;98861.02;;;12.36;96.84
34103;BME280;20381;54.498;18.206;2023-07-31T02:24:14;98866.55;;;12.34;96.59
34103;BME280;20381;54.498;18.206;2023-07-31T02:26:45;98869.94;;;12.30;96.77
34103;BME280;20381;54.498;18.206;2023-07-31T02:29:25;98866.09;;;12.30;97.06
34103;BME280;20381;54.498;18.206;2023-07-31T02:31:57;98861.81;;;12.32;97.19
34103;BME280;20381;54.498;18.206;2023-07-31T02:34:37;98858.06;;;12.30;97.11
34103;BME280;20381;54.498;18.206;2023-07-31T02:37:16;98861.17;;;12.28;97.11
34103;BME280;20381;54.498;18.206;2023-07-31T02:39:47;98854.23;;;12.27;97.21
34103;BME280;20381;54.498;18.206;2023-07-31T02:42:19;98851.64;;;12.27;97.34
34103;BME280;20381;54.498;18.206;2023-07-31T02:44:51;98856.61;;;12.26;97.29
34103;BME280;20381;54.498;18.206;2023-07-31T02:47:30;98854.69;;;12.23;97.34
34103;BME280;20381;54.498;18.206;2023-07-31T02:50:19;98858.39;;;12.23;97.36
34103;BME280;20381;54.498;18.206;2023-07-31T02:55:37;98860.13;;;12.31;97.88
34103;BME280;20381;54.498;18.206;2023-07-31T02:58:11;98863.09;;;12.39;98.05
34103;BME280;20381;54.498;18.206;2023-07-31T03:01:03;98865.58;;;12.46;98.19
34103;BME280;20381;54.498;18.206;2023-07-31T03:03:41;98871.45;;;12.52;98.08
34103;BME280;20381;54.498;18.206;2023-07-31T03:06:12;98873.10;;;12.56;98.26
34103;BME280;20381;54.498;18.206;2023-07-31T03:08:50;98871.05;;;12.63;98.56
34103;BME280;20381;54.498;18.206;2023-07-31T03:11:35;98871.06;;;12.67;98.54
34103;BME280;20381;54.498;18.206;2023-07-31T03:14:12;98866.48;;;12.73;98.61
34103;BME280;20381;54.498;18.206;2023-07-31T03:16:48;98863.27;;;12.76;98.50
34103;BME280;20381;54.498;18.206;2023-07-31T03:19:19;98858.95;;;12.79;98.56
34103;BME280;20381;54.498;18.206;2023-07-31T03:21:51;98862.79;;;12.79;98.47
34103;BME280;20381;54.498;18.206;2023-07-31T03:24:23;98863.36;;;12.72;98.38
34103;BME280;20381;54.498;18.206;2023-07-31T03:26:52;98863.45;;;12.69;98.31
34103;BME280;20381;54.498;18.206;2023-07-31T03:29:26;98864.88;;;12.69;98.85
34103;BME280;20381;54.498;18.206;2023-07-31T03:32:00;98871.30;;;12.69;98.94
34103;BME280;20381;54.498;18.206;2023-07-31T03:34:39;98872.88;;;12.69;98.93
34103;BME280;20381;54.498;18.206;2023-07-31T03:37:14;98876.02;;;12.66;98.87
34103;BME280;20381;54.498;18.206;2023-07-31T03:39:54;98879.70;;;12.66;99.00
34103;BME280;20381;54.498;18.206;2023-07-31T03:42:26;98878.19;;;12.68;99.37
34103;BME280;20381;54.498;18.206;2023-07-31T03:45:15;98885.84;;;12.70;99.37
34103;BME280;20381;54.498;18.206;2023-07-31T03:47:53;98886.86;;;12.74;99.54
34103;BME280;20381;54.498;18.206;2023-07-31T03:50:28;98888.23;;;12.77;99.66
34103;BME280;20381;54.498;18.206;2023-07-31T03:53:00;98891.13;;;12.78;99.62
34103;BME280;20381;54.498;18.206;2023-07-31T03:55:38;98888.28;;;12.82;99.91
34103;BME280;20381;54.498;18.206;2023-07-31T03:58:26;98887.25;;;12.88;100.00
34103;BME280;20381;54.498;18.206;2023-07-31T04:00:57;98888.24;;;12.97;100.00
34103;BME280;20381;54.498;18.206;2023-07-31T04:03:29;98885.40;;;13.00;99.91
34103;BME280;20381;54.498;18.206;2023-07-31T04:06:04;98884.95;;;13.04;100.00
34103;BME280;20381;54.498;18.206;2023-07-31T04:08:35;98888.21;;;13.07;100.00
34103;BME280;20381;54.498;18.206;2023-07-31T04:11:14;98885.59;;;13.09;100.00
34103;BME280;20381;54.498;18.206;2023-07-31T04:13:43;98883.67;;;13.12;100.00
34103;BME280;20381;54.498;18.206;2023-07-31T04:16:19;98887.02;;;13.24;100.00
34103;BME280;20381;54.498;18.206;2023-07-31T04:18:48;98883.95;;;13.31;100.00
34103;BME280;20381;54.498;18.206;2023-07-31T04:21:17;98885.96;;;13.36;100.00
34103;BME280;20381;54.498;18.206;2023-07-31T04:23:58;98885.17;;;13.50;100.00
34103;BME280;20381;54.498;18.206;2023-07-31T04:26:32;98885.94;;;13.58;100.00
34103;BME280;20381;54.498;18.206;2023-07-31T04:31:40;98885.19;;;13.69;100.00
34103;BME280;20381;54.498;18.206;2023-07-31T04:34:14;98881.64;;;13.79;100.00
34103;BME280;20381;54.498;18.206;2023-07-31T04:36:46;98882.33;;;13.84;100.00
34103;BME280;20381;54.498;18.206;2023-07-31T04:39:17;98886.69;;;13.96;100.00
34103;BME280;20381;54.498;18.206;2023-07-31T04:41:49;98885.44;;;14.01;100.00
34103;BME280;20381;54.498;18.206;2023-07-31T04:44:18;98882.31;;;14.12;100.00
34103;BME280;20381;54.498;18.206;2023-07-31T04:46:47;98880.09;;;14.21;100.00
34103;BME280;20381;54.498;18.206;2023-07-31T04:49:19;98883.60;;;14.30;100.00
34103;BME280;20381;54.498;18.206;2023-07-31T04:51:50;98883.67;;;14.40;100.00
34103;BME280;20381;54.498;18.206;2023-07-31T04:54:22;98875.38;;;14.46;100.00
34103;BME280;20381;54.498;18.206;2023-07-31T04:56:57;98874.13;;;14.53;100.00
34103;BME280;20381;54.498;18.206;2023-07-31T04:59:36;98875.46;;;14.64;100.00
34103;BME280;20381;54.498;18.206;2023-07-31T05:02:06;98875.42;;;14.68;100.00
34103;BME280;20381;54.498;18.206;2023-07-31T05:05:02;98874.29;;;14.74;100.00
34103;BME280;20381;54.498;18.206;2023-07-31T05:07:36;98872.49;;;14.86;100.00
34103;BME280;20381;54.498;18.206;2023-07-31T05:10:08;98875.06;;;14.97;100.00
34103;BME280;20381;54.498;18.206;2023-07-31T05:12:37;98878.26;;;15.04;100.00
34103;BME280;20381;54.498;18.206;2023-07-31T05:15:07;98877.45;;;15.05;100.00
34103;BME280;20381;54.498;18.206;2023-07-31T05:17:48;98880.64;;;15.14;100.00
34103;BME280;20381;54.498;18.206;2023-07-31T05:20:18;98884.79;;;15.23;100.00
34103;BME280;20381;54.498;18.206;2023-07-31T05:22:48;98882.71;;;15.32;100.00
34103;BME280;20381;54.498;18.206;2023-07-31T05:25:20;98885.50;;;15.36;100.00
34103;BME280;20381;54.498;18.206;2023-07-31T05:27:49;98885.70;;;15.42;100.00
34103;BME280;20381;54.498;18.206;2023-07-31T05:30:21;98885.16;;;15.50;100.00
34103;BME280;20381;54.498;18.206;2023-07-31T05:32:54;98882.14;;;15.56;100.00
34103;BME280;20381;54.498;18.206;2023-07-31T05:35:23;98884.13;;;15.64;100.00
34103;BME280;20381;54.498;18.206;2023-07-31T05:37:59;98878.73;;;15.75;100.00
34103;BME280;20381;54.498;18.206;2023-07-31T05:40:33;98878.27;;;15.84;100.00
34103;BME280;20381;54.498;18.206;2023-07-31T05:43:07;98874.48;;;15.92;100.00
34103;BME280;20381;54.498;18.206;2023-07-31T05:45:39;98871.08;;;15.98;100.00
34103;BME280;20381;54.498;18.206;2023-07-31T05:48:17;98871.30;;;16.09;100.00
34103;BME280;20381;54.498;18.206;2023-07-31T05:50:46;98867.45;;;16.22;100.00
34103;BME280;20381;54.498;18.206;2023-07-31T05:53:18;98865.73;;;16.31;100.00
34103;BME280;20381;54.498;18.206;2023-07-31T05:55:49;98865.64;;;16.39;100.00
34103;BME280;20381;54.498;18.206;2023-07-31T05:58:27;98868.58;;;16.44;99.90
34103;BME280;20381;54.498;18.206;2023-07-31T06:01:00;98867.38;;;16.48;99.88
34103;BME280;20381;54.498;18.206;2023-07-31T06:03:37;98870.56;;;16.53;99.87
34103;BME280;20381;54.498;18.206;2023-07-31T06:06:07;98865.11;;;16.68;99.91
34103;BME280;20381;54.498;18.206;2023-07-31T06:08:36;98867.49;;;16.77;99.62
34103;BME280;20381;54.498;18.206;2023-07-31T06:11:14;98865.91;;;16.86;99.79
34103;BME280;20381;54.498;18.206;2023-07-31T06:13:46;98866.95;;;16.96;99.54
34103;BME280;20381;54.498;18.206;2023-07-31T06:16:19;98862.70;;;17.06;99.45
34103;BME280;20381;54.498;18.206;2023-07-31T06:18:52;98864.92;;;17.15;99.33
34103;BME280;20381;54.498;18.206;2023-07-31T06:21:21;98863.73;;;17.27;99.21
34103;BME280;20381;54.498;18.206;2023-07-31T06:23:50;98868.48;;;17.36;99.09
34103;BME280;20381;54.498;18.206;2023-07-31T06:26:19;98871.19;;;17.49;98.96
34103;BME280;20381;54.498;18.206;2023-07-31T06:28:49;98868.57;;;17.67;98.83
34103;BME280;20381;54.498;18.206;2023-07-31T06:31:21;98868.98;;;17.82;98.63
34103;BME280;20381;54.498;18.206;2023-07-31T06:33:52;98871.38;;;17.96;98.40
34103;BME280;20381;54.498;18.206;2023-07-31T06:36:21;98874.79;;;18.07;98.05
34103;BME280;20381;54.498;18.206;2023-07-31T06:38:50;98876.77;;;18.20;97.90
34103;BME280;20381;54.498;18.206;2023-07-31T06:41:19;98878.48;;;18.39;97.95
34103;BME280;20381;54.498;18.206;2023-07-31T06:43:48;98875.98;;;18.57;97.78
34103;BME280;20381;54.498;18.206;2023-07-31T06:46:17;98877.01;;;18.72;97.45
34103;BME280;20381;54.498;18.206;2023-07-31T06:48:49;98878.81;;;18.91;97.48
34103;BME280;20381;54.498;18.206;2023-07-31T06:51:18;98883.65;;;19.05;96.85
34103;BME280;20381;54.498;18.206;2023-07-31T06:53:47;98881.62;;;19.20;96.43
34103;BME280;20381;54.498;18.206;2023-07-31T06:56:17;98881.90;;;19.34;96.07
34103;BME280;20381;54.498;18.206;2023-07-31T06:58:45;98881.95;;;19.44;95.42
34103;BME280;20381;54.498;18.206;2023-07-31T07:01:14;98881.73;;;19.47;95.07
34103;BME280;20381;54.498;18.206;2023-07-31T07:03:43;98880.30;;;19.58;95.05
34103;BME280;20381;54.498;18.206;2023-07-31T07:06:11;98882.73;;;19.74;94.40
34103;BME280;20381;54.498;18.206;2023-07-31T07:08:40;98881.08;;;19.93;94.53
34103;BME280;20381;54.498;18.206;2023-07-31T07:11:09;98886.33;;;20.06;94.00
34103;BME280;20381;54.498;18.206;2023-07-31T07:13:38;98883.56;;;20.31;93.98
34103;BME280;20381;54.498;18.206;2023-07-31T07:16:06;98887.14;;;20.68;93.83
34103;BME280;20381;54.498;18.206;2023-07-31T07:18:35;98883.02;;;21.60;95.40
34103;BME280;20381;54.498;18.206;2023-07-31T07:21:08;98875.76;;;23.46;97.88
34103;BME280;20381;54.498;18.206;2023-07-31T07:23:37;98872.21;;;25.61;97.93
34103;BME280;20381;54.498;18.206;2023-07-31T07:26:06;98869.29;;;26.86;93.83
34103;BME280;20381;54.498;18.206;2023-07-31T07:28:35;98878.34;;;26.77;88.20
34103;BME280;20381;54.498;18.206;2023-07-31T07:31:05;98869.32;;;27.00;88.76
34103;BME280;20381;54.498;18.206;2023-07-31T07:33:34;98867.23;;;27.78;89.69
34103;BME280;20381;54.498;18.206;2023-07-31T07:36:02;98866.06;;;28.69;88.25
34103;BME280;20381;54.498;18.206;2023-07-31T07:38:34;98870.39;;;29.10;85.31
34103;BME280;20381;54.498;18.206;2023-07-31T07:41:02;98865.13;;;29.48;85.59
34103;BME280;20381;54.498;18.206;2023-07-31T07:43:31;98865.38;;;30.51;83.33
34103;BME280;20381;54.498;18.206;2023-07-31T07:46:00;98865.81;;;30.29;79.20
34103;BME280;20381;54.498;18.206;2023-07-31T07:48:29;98867.92;;;30.21;78.32
34103;BME280;20381;54.498;18.206;2023-07-31T07:50:58;98865.17;;;30.63;77.08
34103;BME280;20381;54.498;18.206;2023-07-31T07:53:26;98867.19;;;31.17;76.68
34103;BME280;20381;54.498;18.206;2023-07-31T07:55:55;98858.73;;;32.17;76.65
34103;BME280;20381;54.498;18.206;2023-07-31T07:58:23;98858.14;;;33.57;76.19
34103;BME280;20381;54.498;18.206;2023-07-31T08:00:52;98854.52;;;35.44;75.00
34103;BME280;20381;54.498;18.206;2023-07-31T08:03:21;98852.00;;;36.67;72.26
34103;BME280;20381;54.498;18.206;2023-07-31T08:05:50;98847.98;;;36.91;69.47
34103;BME280;20381;54.498;18.206;2023-07-31T08:08:19;98848.16;;;37.44;66.71
34103;BME280;20381;54.498;18.206;2023-07-31T08:10:48;98848.77;;;37.92;63.38
34103;BME280;20381;54.498;18.206;2023-07-31T08:13:17;98853.23;;;38.17;62.57
34103;BME280;20381;54.498;18.206;2023-07-31T08:15:47;98850.92;;;38.70;59.35
34103;BME280;20381;54.498;18.206;2023-07-31T08:18:16;98849.36;;;39.38;57.35
34103;BME280;20381;54.498;18.206;2023-07-31T08:20:46;98852.96;;;39.74;54.42
34103;BME280;20381;54.498;18.206;2023-07-31T08:23:18;98854.53;;;39.70;52.17
34103;BME280;20381;54.498;18.206;2023-07-31T08:25:47;98851.48;;;40.16;50.97
34103;BME280;20381;54.498;18.206;2023-07-31T08:28:18;98846.60;;;41.26;49.60
34103;BME280;20381;54.498;18.206;2023-07-31T08:30:47;98848.26;;;42.78;47.78
34103;BME280;20381;54.498;18.206;2023-07-31T08:33:15;98847.71;;;44.06;45.72
34103;BME280;20381;54.498;18.206;2023-07-31T08:35:44;98841.58;;;44.99;43.71
34103;BME280;20381;54.498;18.206;2023-07-31T08:38:13;98834.58;;;45.66;41.41
34103;BME280;20381;54.498;18.206;2023-07-31T08:40:42;98835.33;;;46.23;38.83
34103;BME280;20381;54.498;18.206;2023-07-31T08:43:10;98835.35;;;46.86;37.65
34103;BME280;20381;54.498;18.206;2023-07-31T08:45:41;98827.75;;;48.21;36.47
34103;BME280;20381;54.498;18.206;2023-07-31T08:48:11;98830.59;;;48.48;32.82
34103;BME280;20381;54.498;18.206;2023-07-31T08:50:43;98834.36;;;48.50;30.26
34103;BME280;20381;54.498;18.206;2023-07-31T08:53:12;98830.46;;;48.56;28.24
34103;BME280;20381;54.498;18.206;2023-07-31T08:55:41;98832.31;;;48.26;26.38
34103;BME280;20381;54.498;18.206;2023-07-31T08:58:12;98831.13;;;48.43;25.44
34103;BME280;20381;54.498;18.206;2023-07-31T09:00:42;98828.66;;;48.77;24.56
34103;BME280;20381;54.498;18.206;2023-07-31T09:03:18;98828.58;;;49.59;24.01
34103;BME280;20381;54.498;18.206;2023-07-31T09:05:47;98823.24;;;48.96;22.11
34103;BME280;20381;54.498;18.206;2023-07-31T09:08:19;98822.91;;;49.30;22.22
34103;BME280;20381;54.498;18.206;2023-07-31T09:10:49;98819.31;;;50.03;21.37
34103;BME280;20381;54.498;18.206;2023-07-31T09:13:24;98815.38;;;50.73;21.71
34103;BME280;20381;54.498;18.206;2023-07-31T09:15:52;98816.87;;;51.86;21.19
34103;BME280;20381;54.498;18.206;2023-07-31T09:18:25;98816.56;;;52.17;20.67
34103;BME280;20381;54.498;18.206;2023-07-31T09:21:04;98806.36;;;52.99;20.61
34103;BME280;20381;54.498;18.206;2023-07-31T09:23:43;98804.02;;;54.04;19.73
34103;BME280;20381;54.498;18.206;2023-07-31T09:26:32;98804.33;;;53.77;18.54
34103;BME280;20381;54.498;18.206;2023-07-31T09:29:03;98805.98;;;53.38;17.83
34103;BME280;20381;54.498;18.206;2023-07-31T09:31:41;98800.12;;;53.28;17.25
34103;BME280;20381;54.498;18.206;2023-07-31T09:34:10;98796.41;;;51.52;15.57
34103;BME280;20381;54.498;18.206;2023-07-31T09:36:47;98796.83;;;48.27;15.94
34103;BME280;20381;54.498;18.206;2023-07-31T09:39:30;98793.85;;;45.55;16.11
34103;BME280;20381;54.498;18.206;2023-07-31T09:42:02;98789.15;;;44.30;16.58
34103;BME280;20381;54.498;18.206;2023-07-31T09:44:40;98790.11;;;45.34;16.85
34103;BME280;20381;54.498;18.206;2023-07-31T09:47:22;98788.05;;;46.05;16.74
34103;BME280;20381;54.498;18.206;2023-07-31T09:49:56;98784.88;;;46.79;16.97
34103;BME280;20381;54.498;18.206;2023-07-31T09:52:26;98784.91;;;48.19;16.94
34103;BME280;20381;54.498;18.206;2023-07-31T09:54:57;98785.24;;;48.12;16.80
34103;BME280;20381;54.498;18.206;2023-07-31T09:57:26;98784.41;;;48.06;17.07
34103;BME280;20381;54.498;18.206;2023-07-31T09:59:57;98776.95;;;48.24;16.98
34103;BME280;20381;54.498;18.206;2023-07-31T10:02:27;98776.83;;;47.39;17.10
34103;BME280;20381;54.498;18.206;2023-07-31T10:05:02;98770.40;;;46.60;16.88
34103;BME280;20381;54.498;18.206;2023-07-31T10:07:36;98766.46;;;45.31;16.79
34103;BME280;20381;54.498;18.206;2023-07-31T10:10:07;98763.22;;;45.00;17.38
34103;BME280;20381;54.498;18.206;2023-07-31T10:12:38;98764.58;;;46.03;17.54
34103;BME280;20381;54.498;18.206;2023-07-31T10:15:08;98759.05;;;46.06;17.21
34103;BME280;20381;54.498;18.206;2023-07-31T10:17:41;98761.06;;;46.53;17.68
34103;BME280;20381;54.498;18.206;2023-07-31T10:20:14;98764.80;;;47.78;17.14
34103;BME280;20381;54.498;18.206;2023-07-31T10:22:45;98764.16;;;47.67;17.04
34103;BME280;20381;54.498;18.206;2023-07-31T10:25:16;98761.09;;;49.00;17.14
34103;BME280;20381;54.498;18.206;2023-07-31T10:27:47;98764.97;;;50.98;16.86
34103;BME280;20381;54.498;18.206;2023-07-31T10:30:19;98755.11;;;52.35;16.50
34103;BME280;20381;54.498;18.206;2023-07-31T10:32:49;98755.09;;;50.15;15.15
34103;BME280;20381;54.498;18.206;2023-07-31T10:35:19;98751.61;;;47.82;15.29
34103;BME280;20381;54.498;18.206;2023-07-31T10:37:51;98751.60;;;46.44;15.56
34103;BME280;20381;54.498;18.206;2023-07-31T10:40:26;98751.16;;;48.11;15.83
34103;BME280;20381;54.498;18.206;2023-07-31T10:42:56;98750.95;;;50.62;15.78
34103;BME280;20381;54.498;18.206;2023-07-31T10:45:39;98752.94;;;52.35;15.25
34103;BME280;20381;54.498;18.206;2023-07-31T10:48:14;98749.59;;;53.23;14.98
34103;BME280;20381;54.498;18.206;2023-07-31T10:50:51;98749.05;;;54.58;14.83
34103;BME280;20381;54.498;18.206;2023-07-31T10:53:34;98747.63;;;52.84;14.39
34103;BME280;20381;54.498;18.206;2023-07-31T10:56:04;98739.70;;;51.42;14.28
34103;BME280;20381;54.498;18.206;2023-07-31T10:58:34;98736.05;;;48.99;14.15
34103;BME280;20381;54.498;18.206;2023-07-31T11:01:04;98736.44;;;47.05;14.43
34103;BME280;20381;54.498;18.206;2023-07-31T11:03:48;98733.86;;;45.34;14.50
34103;BME280;20381;54.498;18.206;2023-07-31T11:06:18;98729.16;;;43.15;14.85
34103;BME280;20381;54.498;18.206;2023-07-31T11:08:49;98719.59;;;42.12;15.15
34103;BME280;20381;54.498;18.206;2023-07-31T11:11:20;98719.17;;;40.11;15.32
34103;BME280;20381;54.498;18.206;2023-07-31T11:13:50;98729.94;;;37.95;16.08
34103;BME280;20381;54.498;18.206;2023-07-31T11:16:24;98728.34;;;36.39;16.62
34103;BME280;20381;54.498;18.206;2023-07-31T11:18:53;98731.12;;;35.26;17.25
34103;BME280;20381;54.498;18.206;2023-07-31T11:21:25;98727.56;;;34.72;17.71
34103;BME280;20381;54.498;18.206;2023-07-31T11:23:57;98727.85;;;34.34;18.14
34103;BME280;20381;54.498;18.206;2023-07-31T11:26:29;98727.43;;;33.45;18.72
34103;BME280;20381;54.498;18.206;2023-07-31T11:28:59;98721.45;;;33.22;19.34
34103;BME280;20381;54.498;18.206;2023-07-31T11:31:28;98719.74;;;32.89;19.79
34103;BME280;20381;54.498;18.206;2023-07-31T11:34:06;98720.23;;;32.40;20.29
34103;BME280;20381;54.498;18.206;2023-07-31T11:36:35;98719.06;;;31.68;20.98
34103;BME280;20381;54.498;18.206;2023-07-31T11:39:09;98721.16;;;30.62;21.20
34103;BME280;20381;54.498;18.206;2023-07-31T11:41:41;98731.47;;;29.74;21.94
34103;BME280;20381;54.498;18.206;2023-07-31T11:44:10;98733.30;;;29.15;22.57
34103;BME280;20381;54.498;18.206;2023-07-31T11:47:00;98727.55;;;28.74;23.02
34103;BME280;20381;54.498;18.206;2023-07-31T11:49:29;98726.89;;;28.35;23.42
34103;BME280;20381;54.498;18.206;2023-07-31T11:51:58;98730.44;;;27.84;23.91
34103;BME280;20381;54.498;18.206;2023-07-31T11:54:30;98732.52;;;27.32;24.14
34103;BME280;20381;54.498;18.206;2023-07-31T11:56:59;98731.52;;;27.09;24.93
34103;BME280;20381;54.498;18.206;2023-07-31T11:59:34;98722.35;;;27.38;25.09
34103;BME280;20381;54.498;18.206;2023-07-31T12:02:04;98727.40;;;27.23;25.77
34103;BME280;20381;54.498;18.206;2023-07-31T12:04:33;98730.60;;;27.05;26.00
34103;BME280;20381;54.498;18.206;2023-07-31T12:07:02;98725.05;;;26.81;26.24
34103;BME280;20381;54.498;18.206;2023-07-31T12:09:33;98732.41;;;26.56;27.00
34103;BME280;20381;54.498;18.206;2023-07-31T12:12:08;98727.67;;;26.76;27.44
34103;BME280;20381;54.498;18.206;2023-07-31T12:14:41;98725.70;;;27.25;27.73
34103;BME280;20381;54.498;18.206;2023-07-31T12:17:11;98722.34;;;27.83;28.01
34103;BME280;20381;54.498;18.206;2023-07-31T12:19:41;98721.98;;;28.01;28.03
34103;BME280;20381;54.498;18.206;2023-07-31T12:22:14;98722.17;;;28.06;28.35
34103;BME280;20381;54.498;18.206;2023-07-31T12:24:48;98721.58;;;27.90;28.48
34103;BME280;20381;54.498;18.206;2023-07-31T12:27:17;98723.30;;;27.52;28.81
34103;BME280;20381;54.498;18.206;2023-07-31T12:29:47;98718.46;;;27.09;29.05
34103;BME280;20381;54.498;18.206;2023-07-31T12:32:20;98724.59;;;26.40;29.32
34103;BME280;20381;54.498;18.206;2023-07-31T12:34:50;98725.95;;;25.84;29.86
34103;BME280;20381;54.498;18.206;2023-07-31T12:37:21;98719.21;;;25.79;30.41
34103;BME280;20381;54.498;18.206;2023-07-31T12:39:50;98711.95;;;26.11;30.54
34103;BME280;20381;54.498;18.206;2023-07-31T12:42:19;98714.41;;;26.08;30.84
34103;BME280;20381;54.498;18.206;2023-07-31T12:44:47;98717.98;;;25.94;31.19
34103;BME280;20381;54.498;18.206;2023-07-31T12:47:17;98719.09;;;25.59;31.32
34103;BME280;20381;54.498;18.206;2023-07-31T12:49:46;98709.53;;;25.20;31.71
34103;BME280;20381;54.498;18.206;2023-07-31T12:52:15;98713.83;;;24.83;32.06
34103;BME280;20381;54.498;18.206;2023-07-31T12:54:44;98710.35;;;24.74;32.73
34103;BME280;20381;54.498;18.206;2023-07-31T12:57:13;98707.27;;;25.05;33.19
34103;BME280;20381;54.498;18.206;2023-07-31T12:59:42;98706.48;;;25.21;33.38
34103;BME280;20381;54.498;18.206;2023-07-31T13:02:11;98702.33;;;25.35;33.44
34103;BME280;20381;54.498;18.206;2023-07-31T13:04:40;98702.36;;;25.35;34.08
34103;BME280;20381;54.498;18.206;2023-07-31T13:07:09;98697.67;;;25.59;34.12
34103;BME280;20381;54.498;18.206;2023-07-31T13:09:38;98693.04;;;25.78;34.31
34103;BME280;20381;54.498;18.206;2023-07-31T13:12:07;98684.48;;;25.76;34.43
34103;BME280;20381;54.498;18.206;2023-07-31T13:14:36;98677.91;;;25.73;34.47
34103;BME280;20381;54.498;18.206;2023-07-31T13:17:05;98677.67;;;25.58;34.88
34103;BME280;20381;54.498;18.206;2023-07-31T13:19:35;98672.98;;;25.57;35.12
34103;BME280;20381;54.498;18.206;2023-07-31T13:22:10;98668.80;;;25.63;35.36
34103;BME280;20381;54.498;18.206;2023-07-31T13:28:32;98666.27;;;25.25;35.66
34103;BME280;20381;54.498;18.206;2023-07-31T13:31:01;98658.68;;;25.06;35.97